Seabourn Odyssey — C6XC6 — position and weather

sailwx.info

Track history (hours):
 
Tides and Currents Weather Stations Pressure Air Temp Water Temp Dewpoint Dewpoint Depression Visibility Wind Speed Wind Dir Waves Ship Positions

Seabourn Odyssey

Last reported at 2017-May-26 11:12 UTC. Time now 2017-May-29 11:33 UTC.
Position N 43°44' E 007°26'.

Length 198 m; draft 6.7 m.

Type: Ship. MMSI: 309416000.

Date/timePositionNaut miles runAvg speedWind from/ knotsBaromVisibWave heightAir tempDewpointWater temp
2017-May-26 11:12N 43°44' E 007°26'0 0.0
2017-May-24 18:30N 43°44' E 007°26'0 0.0
2017-May-24 12:26N 43°44' E 007°26'0 0.0
2017-May-24 11:54N 43°44' E 007°26'0 0.0
2017-May-24 04:25N 43°44' E 007°26'1 1.2
2017-May-24 03:59N 43°44' E 007°26'3 6.3
2017-May-24 03:30N 43°41' E 007°28'3 6.9
2017-May-24 03:00N 43°38' E 007°31'3 7.0
2017-May-24 02:30N 43°35' E 007°33'3 6.7
2017-May-24 02:00N 43°32' E 007°36'4 6.3
2017-May-24 01:24N 43°32' E 007°41'3 7.2
2017-May-24 00:59N 43°32' E 007°45'3 7.2
2017-May-24 00:30N 43°33' E 007°50'4 7.1
2017-May-24 00:00N 43°34' E 007°54'3 7.0
2017-May-23 23:30N 43°35' E 007°59'3 6.9
2017-May-23 23:00N 43°35' E 008°04'3 6.9
2017-May-23 22:30N 43°36' E 008°09'4 7.0
2017-May-23 22:00N 43°37' E 008°13'4 7.2
2017-May-23 21:30N 43°37' E 008°18'4 7.1
2017-May-23 21:00N 43°38' E 008°23'4 7.4
2017-May-23 20:30N 43°39' E 008°28'611.7
2017-May-23 20:00N 43°40' E 008°36'714.6
2017-May-23 19:30N 43°41' E 008°46'714.5
2017-May-23 19:00N 43°43' E 008°56'714.6
2017-May-23 18:30N 43°45' E 009°05'714.6
2017-May-23 18:00N 43°48' E 009°14'714.3
2017-May-23 17:30N 43°51' E 009°23'714.5
2017-May-23 17:00N 43°54' E 009°33'714.2
2017-May-23 16:31N 43°57' E 009°42'713.6
2017-May-23 16:00N 43°59' E 009°50'4 8.2
2017-May-23 15:30N 44°03' E 009°51'0 0.1
2017-May-23 15:00N 44°03' E 009°51'0 0.0
2017-May-23 14:00N 44°03' E 009°51'0 0.0
2017-May-23 13:30N 44°03' E 009°51'0 0.1
2017-May-23 13:00N 44°03' E 009°51'0 0.1
2017-May-23 12:30N 44°03' E 009°51'0 0.1
2017-May-23 11:59N 44°03' E 009°51'0 0.0
2017-May-23 11:29N 44°03' E 009°51'0 0.0
2017-May-23 10:59N 44°03' E 009°51'0 0.1
2017-May-23 10:29N 44°03' E 009°51'0 0.0
2017-May-23 09:59N 44°03' E 009°51'0 0.0
2017-May-23 09:22N 44°03' E 009°51'0 0.1
2017-May-23 08:58N 44°03' E 009°51'0 0.0
2017-May-23 08:28N 44°03' E 009°51'0 0.0
2017-May-23 07:58N 44°03' E 009°51'0 0.0
2017-May-23 07:28N 44°03' E 009°51'0 0.0
2017-May-23 06:52N 44°03' E 009°51'0 0.0
2017-May-23 06:28N 44°03' E 009°51'0 0.0
2017-May-23 05:58N 44°03' E 009°51'0 0.0
2017-May-23 05:28N 44°03' E 009°51'0 0.9
2017-May-23 05:01N 44°03' E 009°52'3 5.4
2017-May-23 04:31N 44°02' E 009°55'3 6.5
2017-May-23 04:00N 43°59' E 009°58'3 6.8
2017-May-23 03:31N 43°56' E 009°58'3 6.8
2017-May-23 03:00N 43°53' E 009°56'3 6.8
2017-May-23 02:30N 43°50' E 009°53'3 6.7
2017-May-23 02:00N 43°48' E 009°50'3 6.8
2017-May-23 01:30N 43°46' E 009°46'3 6.9
2017-May-23 01:00N 43°43' E 009°43'4 7.0
2017-May-23 00:30N 43°41' E 009°39'4 7.1
2017-May-23 00:00N 43°38' E 009°36'4 7.1
2017-May-22 23:30N 43°35' E 009°33'3 6.7
2017-May-22 23:00N 43°32' E 009°31'4 7.1
2017-May-22 22:30N 43°29' E 009°32'4 7.1
2017-May-22 22:00N 43°25' E 009°33'4 7.1
2017-May-22 21:30N 43°23' E 009°36'4 7.4
2017-May-22 21:00N 43°20' E 009°40'4 7.3
2017-May-22 20:30N 43°18' E 009°44'4 7.5
2017-May-22 20:00N 43°15' E 009°47'4 7.3
2017-May-22 19:30N 43°13' E 009°51'4 7.1
2017-May-22 19:00N 43°11' E 009°55'4 7.1
2017-May-22 18:30N 43°08' E 009°58'612.0
2017-May-22 18:00N 43°04' E 010°04'1412.7
2017-May-22 16:53N 42°53' E 010°17'512.0
2017-May-22 16:30N 42°50' E 010°21'1 1.1
2017-May-22 15:15N 42°49' E 010°20'0 0.0
2017-May-22 15:00N 42°49' E 010°20'0 0.0
2017-May-22 14:30N 42°49' E 010°20'0 0.0
2017-May-22 05:12N 42°49' E 010°20'0 1.3
2017-May-22 04:56N 42°49' E 010°20'4 6.4
2017-May-22 04:15N 42°53' E 010°19'415.9
2017-May-22 04:00N 42°56' E 010°15'714.9
2017-May-22 03:30N 43°01' E 010°08'917.2
2017-May-22 03:00N 43°07' E 009°60'816.8
2017-May-22 02:30N 43°11' E 009°49'816.8
2017-May-22 02:00N 43°09' E 009°38'816.7
2017-May-22 01:30N 43°09' E 009°27'816.2
2017-May-22 01:00N 43°06' E 009°16'816.3
2017-May-22 00:30N 43°02' E 009°06'5515.7
2017-May-21 21:01N 42°17' E 008°24'016.6
2017-May-21 21:00N 42°17' E 008°24'916.7
2017-May-21 20:27N 42°08' E 008°25'816.6
2017-May-21 20:00N 41°60' E 008°25'816.7
2017-May-21 19:31N 41°52' E 008°29'713.2
2017-May-21 18:57N 41°51' E 008°39'612.7
2017-May-21 18:28N 41°55' E 008°45'0 0.1
2017-May-21 12:34N 41°55' E 008°45'0 0.0
2017-May-21 12:04N 41°55' E 008°45'0 0.0
2017-May-21 11:58N 41°55' E 008°45'0 0.0
2017-May-21 11:26N 41°55' E 008°45'0 0.2
2017-May-21 10:59N 41°55' E 008°45'2 4.4
2017-May-21 10:27N 41°53' E 008°45'714.0
2017-May-21 09:59N 41°50' E 008°38'715.2
2017-May-21 09:30N 41°42' E 008°38'917.5
2017-May-21 09:00N 41°34' E 008°42'917.2
2017-May-21 08:29N 41°27' E 008°48'816.1
2017-May-21 08:00N 41°23' E 008°58'815.2
2017-May-21 07:29N 41°23' E 009°08'1 1.6
2017-May-21 06:50N 41°23' E 009°10'0 0.1
2017-May-21 05:33N 41°23' E 009°10'0 0.9
2017-May-21 05:29N 41°23' E 009°09'2 4.4
2017-May-21 05:00N 41°22' E 009°07'5 9.3
2017-May-21 04:30N 41°22' E 009°01'611.8
2017-May-21 04:00N 41°23' E 008°53'611.7
2017-May-21 03:30N 41°26' E 008°47'612.1
2017-May-21 03:00N 41°29' E 008°40'612.0
2017-May-21 02:29N 41°34' E 008°35'612.3
2017-May-21 01:58N 41°40' E 008°31'612.4
2017-May-21 01:30N 41°45' E 008°28'5112.6
2017-May-20 21:27N 42°32' E 007°59'612.5
2017-May-20 20:59N 42°37' E 007°56'612.5
2017-May-20 20:30N 42°43' E 007°53'612.1
2017-May-20 20:00N 42°48' E 007°49'712.2
2017-May-20 19:27N 42°54' E 007°46'612.6
2017-May-20 19:00N 42°59' E 007°42'713.9
2017-May-20 18:31N 43°06' E 007°39'714.4
2017-May-20 18:01N 43°12' E 007°35'714.0
2017-May-20 17:30N 43°18' E 007°30'714.0
2017-May-20 17:00N 43°25' E 007°26'714.3
2017-May-20 16:30N 43°31' E 007°21'713.6
2017-May-20 16:00N 43°37' E 007°17'4 8.4
2017-May-20 15:30N 43°41' E 007°17'0 0.0
2017-May-20 04:43N 43°42' E 007°17'0 0.9
2017-May-20 04:29N 43°41' E 007°17'1 2.5
2017-May-20 04:01N 43°40' E 007°17'5 9.9
2017-May-20 03:31N 43°36' E 007°15'510.6
2017-May-20 03:00N 43°30' E 007°13'510.2
2017-May-20 02:30N 43°26' E 007°10'4 7.6
2017-May-20 02:01N 43°23' E 007°06'4 7.6
2017-May-20 01:29N 43°20' E 007°03'51 5.7
2017-May-19 16:32N 43°05' E 005°56'0 6.7
2017-May-19 16:30N 43°05' E 005°56'2 0.2
2017-May-19 06:39N 43°07' E 005°56'0 1.8
2017-May-19 06:30N 43°07' E 005°55'47 8.3
2017-May-19 00:52N 42°34' E 005°10'9712.0
2017-May-18 16:46N 41°51' E 003°13'7 0.5
2017-May-18 04:06N 41°45' E 003°08'0 4.3
2017-May-18 03:59N 41°45' E 003°08'3 5.5
2017-May-18 03:28N 41°42' E 003°10'3 5.5
2017-May-18 02:54N 41°39' E 003°11'2 5.7
2017-May-18 02:30N 41°37' E 003°12'3 6.3
2017-May-18 02:00N 41°34' E 003°13'5 6.4
2017-May-18 01:13N 41°29' E 003°14'1 6.5
2017-May-18 01:00N 41°28' E 003°12'3 6.5
2017-May-18 00:30N 41°26' E 003°09'3 6.4
2017-May-18 00:00N 41°23' E 003°06'6 6.3
2017-May-17 22:58N 41°19' E 002°60'3 6.3
2017-May-17 22:28N 41°17' E 002°57'3 6.7
2017-May-17 22:00N 41°15' E 002°54'3 6.5
2017-May-17 21:30N 41°13' E 002°51'3 6.5
2017-May-17 21:00N 41°10' E 002°47'3 5.8
2017-May-17 20:30N 41°09' E 002°44'3 6.4
2017-May-17 20:00N 41°11' E 002°40'3 6.4
2017-May-17 19:29N 41°12' E 002°36'5 6.0
2017-May-17 18:43N 41°14' E 002°30'2 5.1
2017-May-17 18:25N 41°14' E 002°28'3 5.0
2017-May-17 17:52N 41°15' E 002°25'2 5.0
2017-May-17 17:30N 41°16' E 002°23'2 4.9
2017-May-17 17:00N 41°17' E 002°20'3 5.7
2017-May-17 16:30N 41°18' E 002°16'5 9.5
2017-May-17 15:58N 41°21' E 002°11'1 0.7
2017-May-17 14:41N 41°22' E 002°11'0 0.0
2017-May-17 13:59N 41°22' E 002°11'0 0.0
2017-May-17 12:29N 41°22' E 002°11'0 0.0
2017-May-17 11:05N 41°22' E 002°11'0 0.0
2017-May-17 10:47N 41°22' E 002°11'0 0.0
2017-May-17 09:47N 41°22' E 002°11'0 0.0
2017-May-17 07:59N 41°22' E 002°11'0 0.0
2017-May-17 07:17N 41°22' E 002°11'0 0.0
2017-May-17 06:55N 41°22' E 002°11'0 0.0
2017-May-17 06:19N 41°22' E 002°11'0 0.0
2017-May-17 05:57N 41°22' E 002°11'0 0.3
2017-May-17 04:22N 41°22' E 002°11'2 5.8
2017-May-17 04:00N 41°20' E 002°13'911.0
2017-May-17 03:08N 41°12' E 002°18'212.3
2017-May-17 03:00N 41°10' E 002°17'611.3
2017-May-17 02:30N 41°05' E 002°16'811.4
2017-May-17 01:47N 40°56' E 002°15'311.7
2017-May-17 01:30N 40°53' E 002°15'711.7
2017-May-17 00:54N 40°46' E 002°16'511.7
2017-May-17 00:30N 40°42' E 002°16'611.8
2017-May-17 00:00N 40°36' E 002°17'611.7
2017-May-16 23:30N 40°30' E 002°17'611.7
2017-May-16 22:59N 40°24' E 002°15'611.8
2017-May-16 22:30N 40°18' E 002°15'611.8
2017-May-16 22:00N 40°12' E 002°15'611.8
2017-May-16 21:30N 40°06' E 002°15'611.8
2017-May-16 21:00N 40°00' E 002°15'611.8
2017-May-16 20:30N 39°55' E 002°15'611.8
2017-May-16 20:00N 39°49' E 002°15'712.1
2017-May-16 19:27N 39°42' E 002°14'512.0
2017-May-16 19:00N 39°37' E 002°14'611.2
2017-May-16 18:29N 39°31' E 002°18'612.3
2017-May-16 18:00N 39°27' E 002°23'611.7
2017-May-16 17:30N 39°25' E 002°30'611.3
2017-May-16 17:00N 39°28' E 002°36'5 9.9
2017-May-16 16:30N 39°33' E 002°39'1 2.0
2017-May-16 15:59N 39°33' E 002°38'0 0.0
2017-May-16 15:29N 39°33' E 002°38'0 0.0
2017-May-16 14:59N 39°33' E 002°38'0 0.0
2017-May-16 13:59N 39°33' E 002°38'0 0.0
2017-May-16 13:29N 39°33' E 002°38'0 0.0
2017-May-16 12:58N 39°33' E 002°38'0 0.0
2017-May-16 12:28N 39°33' E 002°38'0 0.0
2017-May-16 11:58N 39°33' E 002°38'0 0.0
2017-May-16 11:28N 39°33' E 002°38'  
Track history (hours):
 
Tides and Currents Weather Stations Pressure Air Temp Water Temp Dewpoint Dewpoint Depression Visibility Wind Speed Wind Dir Waves Ship Positions

Seabourn Odyssey

Last reported at 2017-May-26 11:12 UTC. Time now 2017-May-29 11:33 UTC.
Position N 43°44' E 007°26'.

Length 198 m; draft 6.7 m.

Type: Ship. MMSI: 309416000.

Date/timePositionNaut miles runAvg speedWind from/ knotsBaromVisibWave heightAir tempDewpointWater temp
2017-May-26 11:12N 43°44' E 007°26'0 0.0
2017-May-24 18:30N 43°44' E 007°26'0 0.0
2017-May-24 12:26N 43°44' E 007°26'0 0.0
2017-May-24 11:54N 43°44' E 007°26'0 0.0
2017-May-24 04:25N 43°44' E 007°26'1 1.2
2017-May-24 03:59N 43°44' E 007°26'3 6.3
2017-May-24 03:30N 43°41' E 007°28'3 6.9
2017-May-24 03:00N 43°38' E 007°31'3 7.0
2017-May-24 02:30N 43°35' E 007°33'3 6.7
2017-May-24 02:00N 43°32' E 007°36'4 6.3
2017-May-24 01:24N 43°32' E 007°41'3 7.2
2017-May-24 00:59N 43°32' E 007°45'3 7.2
2017-May-24 00:30N 43°33' E 007°50'4 7.1
2017-May-24 00:00N 43°34' E 007°54'3 7.0
2017-May-23 23:30N 43°35' E 007°59'3 6.9
2017-May-23 23:00N 43°35' E 008°04'3 6.9
2017-May-23 22:30N 43°36' E 008°09'4 7.0
2017-May-23 22:00N 43°37' E 008°13'4 7.2
2017-May-23 21:30N 43°37' E 008°18'4 7.1
2017-May-23 21:00N 43°38' E 008°23'4 7.4
2017-May-23 20:30N 43°39' E 008°28'611.7
2017-May-23 20:00N 43°40' E 008°36'714.6
2017-May-23 19:30N 43°41' E 008°46'714.5
2017-May-23 19:00N 43°43' E 008°56'714.6
2017-May-23 18:30N 43°45' E 009°05'714.6
2017-May-23 18:00N 43°48' E 009°14'714.3
2017-May-23 17:30N 43°51' E 009°23'714.5
2017-May-23 17:00N 43°54' E 009°33'714.2
2017-May-23 16:31N 43°57' E 009°42'713.6
2017-May-23 16:00N 43°59' E 009°50'4 8.2
2017-May-23 15:30N 44°03' E 009°51'0 0.1
2017-May-23 15:00N 44°03' E 009°51'0 0.0
2017-May-23 14:00N 44°03' E 009°51'0 0.0
2017-May-23 13:30N 44°03' E 009°51'0 0.1
2017-May-23 13:00N 44°03' E 009°51'0 0.1
2017-May-23 12:30N 44°03' E 009°51'0 0.1
2017-May-23 11:59N 44°03' E 009°51'0 0.0
2017-May-23 11:29N 44°03' E 009°51'0 0.0
2017-May-23 10:59N 44°03' E 009°51'0 0.1
2017-May-23 10:29N 44°03' E 009°51'0 0.0
2017-May-23 09:59N 44°03' E 009°51'0 0.0
2017-May-23 09:22N 44°03' E 009°51'0 0.1
2017-May-23 08:58N 44°03' E 009°51'0 0.0
2017-May-23 08:28N 44°03' E 009°51'0 0.0
2017-May-23 07:58N 44°03' E 009°51'0 0.0
2017-May-23 07:28N 44°03' E 009°51'0 0.0
2017-May-23 06:52N 44°03' E 009°51'0 0.0
2017-May-23 06:28N 44°03' E 009°51'0 0.0
2017-May-23 05:58N 44°03' E 009°51'0 0.0
2017-May-23 05:28N 44°03' E 009°51'0 0.9
2017-May-23 05:01N 44°03' E 009°52'3 5.4
2017-May-23 04:31N 44°02' E 009°55'3 6.5
2017-May-23 04:00N 43°59' E 009°58'3 6.8
2017-May-23 03:31N 43°56' E 009°58'3 6.8
2017-May-23 03:00N 43°53' E 009°56'3 6.8
2017-May-23 02:30N 43°50' E 009°53'3 6.7
2017-May-23 02:00N 43°48' E 009°50'3 6.8
2017-May-23 01:30N 43°46' E 009°46'3 6.9
2017-May-23 01:00N 43°43' E 009°43'4 7.0
2017-May-23 00:30N 43°41' E 009°39'4 7.1
2017-May-23 00:00N 43°38' E 009°36'4 7.1
2017-May-22 23:30N 43°35' E 009°33'3 6.7
2017-May-22 23:00N 43°32' E 009°31'4 7.1
2017-May-22 22:30N 43°29' E 009°32'4 7.1
2017-May-22 22:00N 43°25' E 009°33'4 7.1
2017-May-22 21:30N 43°23' E 009°36'4 7.4
2017-May-22 21:00N 43°20' E 009°40'4 7.3
2017-May-22 20:30N 43°18' E 009°44'4 7.5
2017-May-22 20:00N 43°15' E 009°47'4 7.3
2017-May-22 19:30N 43°13' E 009°51'4 7.1
2017-May-22 19:00N 43°11' E 009°55'4 7.1
2017-May-22 18:30N 43°08' E 009°58'612.0
2017-May-22 18:00N 43°04' E 010°04'1412.7
2017-May-22 16:53N 42°53' E 010°17'512.0
2017-May-22 16:30N 42°50' E 010°21'1 1.1
2017-May-22 15:15N 42°49' E 010°20'0 0.0
2017-May-22 15:00N 42°49' E 010°20'0 0.0
2017-May-22 14:30N 42°49' E 010°20'0 0.0
2017-May-22 05:12N 42°49' E 010°20'0 1.3
2017-May-22 04:56N 42°49' E 010°20'4 6.4
2017-May-22 04:15N 42°53' E 010°19'415.9
2017-May-22 04:00N 42°56' E 010°15'714.9
2017-May-22 03:30N 43°01' E 010°08'917.2
2017-May-22 03:00N 43°07' E 009°60'816.8
2017-May-22 02:30N 43°11' E 009°49'816.8
2017-May-22 02:00N 43°09' E 009°38'816.7
2017-May-22 01:30N 43°09' E 009°27'816.2
2017-May-22 01:00N 43°06' E 009°16'816.3
2017-May-22 00:30N 43°02' E 009°06'5515.7
2017-May-21 21:01N 42°17' E 008°24'016.6
2017-May-21 21:00N 42°17' E 008°24'916.7
2017-May-21 20:27N 42°08' E 008°25'816.6
2017-May-21 20:00N 41°60' E 008°25'816.7
2017-May-21 19:31N 41°52' E 008°29'713.2
2017-May-21 18:57N 41°51' E 008°39'612.7
2017-May-21 18:28N 41°55' E 008°45'0 0.1
2017-May-21 12:34N 41°55' E 008°45'0 0.0
2017-May-21 12:04N 41°55' E 008°45'0 0.0
2017-May-21 11:58N 41°55' E 008°45'0 0.0
2017-May-21 11:26N 41°55' E 008°45'0 0.2
2017-May-21 10:59N 41°55' E 008°45'2 4.4
2017-May-21 10:27N 41°53' E 008°45'714.0
2017-May-21 09:59N 41°50' E 008°38'715.2
2017-May-21 09:30N 41°42' E 008°38'917.5
2017-May-21 09:00N 41°34' E 008°42'917.2
2017-May-21 08:29N 41°27' E 008°48'816.1
2017-May-21 08:00N 41°23' E 008°58'815.2
2017-May-21 07:29N 41°23' E 009°08'1 1.6
2017-May-21 06:50N 41°23' E 009°10'0 0.1
2017-May-21 05:33N 41°23' E 009°10'0 0.9
2017-May-21 05:29N 41°23' E 009°09'2 4.4
2017-May-21 05:00N 41°22' E 009°07'5 9.3
2017-May-21 04:30N 41°22' E 009°01'611.8
2017-May-21 04:00N 41°23' E 008°53'611.7
2017-May-21 03:30N 41°26' E 008°47'612.1
2017-May-21 03:00N 41°29' E 008°40'612.0
2017-May-21 02:29N 41°34' E 008°35'612.3
2017-May-21 01:58N 41°40' E 008°31'612.4
2017-May-21 01:30N 41°45' E 008°28'5112.6
2017-May-20 21:27N 42°32' E 007°59'612.5
2017-May-20 20:59N 42°37' E 007°56'612.5
2017-May-20 20:30N 42°43' E 007°53'612.1
2017-May-20 20:00N 42°48' E 007°49'712.2
2017-May-20 19:27N 42°54' E 007°46'612.6
2017-May-20 19:00N 42°59' E 007°42'713.9
2017-May-20 18:31N 43°06' E 007°39'714.4
2017-May-20 18:01N 43°12' E 007°35'714.0
2017-May-20 17:30N 43°18' E 007°30'714.0
2017-May-20 17:00N 43°25' E 007°26'714.3
2017-May-20 16:30N 43°31' E 007°21'713.6
2017-May-20 16:00N 43°37' E 007°17'4 8.4
2017-May-20 15:30N 43°41' E 007°17'0 0.0
2017-May-20 04:43N 43°42' E 007°17'0 0.9
2017-May-20 04:29N 43°41' E 007°17'1 2.5
2017-May-20 04:01N 43°40' E 007°17'5 9.9
2017-May-20 03:31N 43°36' E 007°15'510.6
2017-May-20 03:00N 43°30' E 007°13'510.2
2017-May-20 02:30N 43°26' E 007°10'4 7.6
2017-May-20 02:01N 43°23' E 007°06'4 7.6
2017-May-20 01:29N 43°20' E 007°03'51 5.7
2017-May-19 16:32N 43°05' E 005°56'0 6.7
2017-May-19 16:30N 43°05' E 005°56'2 0.2
2017-May-19 06:39N 43°07' E 005°56'0 1.8
2017-May-19 06:30N 43°07' E 005°55'47 8.3
2017-May-19 00:52N 42°34' E 005°10'9712.0
2017-May-18 16:46N 41°51' E 003°13'7 0.5
2017-May-18 04:06N 41°45' E 003°08'0 4.3
2017-May-18 03:59N 41°45' E 003°08'3 5.5
2017-May-18 03:28N 41°42' E 003°10'3 5.5
2017-May-18 02:54N 41°39' E 003°11'2 5.7
2017-May-18 02:30N 41°37' E 003°12'3 6.3
2017-May-18 02:00N 41°34' E 003°13'5 6.4
2017-May-18 01:13N 41°29' E 003°14'1 6.5
2017-May-18 01:00N 41°28' E 003°12'3 6.5
2017-May-18 00:30N 41°26' E 003°09'3 6.4
2017-May-18 00:00N 41°23' E 003°06'6 6.3
2017-May-17 22:58N 41°19' E 002°60'3 6.3
2017-May-17 22:28N 41°17' E 002°57'3 6.7
2017-May-17 22:00N 41°15' E 002°54'3 6.5
2017-May-17 21:30N 41°13' E 002°51'3 6.5
2017-May-17 21:00N 41°10' E 002°47'3 5.8
2017-May-17 20:30N 41°09' E 002°44'3 6.4
2017-May-17 20:00N 41°11' E 002°40'3 6.4
2017-May-17 19:29N 41°12' E 002°36'5 6.0
2017-May-17 18:43N 41°14' E 002°30'2 5.1
2017-May-17 18:25N 41°14' E 002°28'3 5.0
2017-May-17 17:52N 41°15' E 002°25'2 5.0
2017-May-17 17:30N 41°16' E 002°23'2 4.9
2017-May-17 17:00N 41°17' E 002°20'3 5.7
2017-May-17 16:30N 41°18' E 002°16'5 9.5
2017-May-17 15:58N 41°21' E 002°11'1 0.7
2017-May-17 14:41N 41°22' E 002°11'0 0.0
2017-May-17 13:59N 41°22' E 002°11'0 0.0
2017-May-17 12:29N 41°22' E 002°11'0 0.0
2017-May-17 11:05N 41°22' E 002°11'0 0.0
2017-May-17 10:47N 41°22' E 002°11'0 0.0
2017-May-17 09:47N 41°22' E 002°11'0 0.0
2017-May-17 07:59N 41°22' E 002°11'0 0.0
2017-May-17 07:17N 41°22' E 002°11'0 0.0
2017-May-17 06:55N 41°22' E 002°11'0 0.0
2017-May-17 06:19N 41°22' E 002°11'0 0.0
2017-May-17 05:57N 41°22' E 002°11'0 0.3
2017-May-17 04:22N 41°22' E 002°11'2 5.8
2017-May-17 04:00N 41°20' E 002°13'911.0
2017-May-17 03:08N 41°12' E 002°18'212.3
2017-May-17 03:00N 41°10' E 002°17'611.3
2017-May-17 02:30N 41°05' E 002°16'811.4
2017-May-17 01:47N 40°56' E 002°15'311.7
2017-May-17 01:30N 40°53' E 002°15'711.7
2017-May-17 00:54N 40°46' E 002°16'511.7
2017-May-17 00:30N 40°42' E 002°16'611.8
2017-May-17 00:00N 40°36' E 002°17'611.7
2017-May-16 23:30N 40°30' E 002°17'611.7
2017-May-16 22:59N 40°24' E 002°15'611.8
2017-May-16 22:30N 40°18' E 002°15'611.8
2017-May-16 22:00N 40°12' E 002°15'611.8
2017-May-16 21:30N 40°06' E 002°15'611.8
2017-May-16 21:00N 40°00' E 002°15'611.8
2017-May-16 20:30N 39°55' E 002°15'611.8
2017-May-16 20:00N 39°49' E 002°15'712.1
2017-May-16 19:27N 39°42' E 002°14'512.0
2017-May-16 19:00N 39°37' E 002°14'611.2
2017-May-16 18:29N 39°31' E 002°18'612.3
2017-May-16 18:00N 39°27' E 002°23'611.7
2017-May-16 17:30N 39°25' E 002°30'611.3
2017-May-16 17:00N 39°28' E 002°36'5 9.9
2017-May-16 16:30N 39°33' E 002°39'1 2.0
2017-May-16 15:59N 39°33' E 002°38'0 0.0
2017-May-16 15:29N 39°33' E 002°38'0 0.0
2017-May-16 14:59N 39°33' E 002°38'0 0.0
2017-May-16 13:59N 39°33' E 002°38'0 0.0
2017-May-16 13:29N 39°33' E 002°38'0 0.0
2017-May-16 12:58N 39°33' E 002°38'0 0.0
2017-May-16 12:28N 39°33' E 002°38'0 0.0
2017-May-16 11:58N 39°33' E 002°38'0 0.0
2017-May-16 11:28N 39°33' E 002°38'  

Dump ship's entire track history